EW2575 El Paso ES current weather conditions

sailwx.info

Wind from 182 at 0 knots gusting 6

Air temperature 17.8° C
Dewpoint 15.0° C

Last reported at 2018-Jul-18 08:02 UTC.
Time now 2018-Jul-18 08:39 UTC

Location: N 28°39' W 017°53'.
View on Google Maps.

See reports from other nearby stations

  
Tides and Currents Weather Stations Pressure Air Temp Water Temp Dewpoint Dewpoint Depression Visibility Wind Speed Wind Dir Waves Ship Positions
date/time (UTC)wind fromknots sea level pressurealtimeterstation pressurevisibilityair tempwater tempwave heightnotes
2018-Jul-18 08:02 182 0 gusting 6 17.8
2018-Jul-18 07:46 154 0 gusting 6 17.8
2018-Jul-18 07:31 146 0 gusting 7 17.8
2018-Jul-18 07:16 121 2 gusting 9 18.3
2018-Jul-18 07:02 091 17.8
2018-Jul-18 06:46 061 17.8
2018-Jul-18 06:30 084 11 gusting 21 17.8
2018-Jul-18 06:15 063 9 gusting 19 17.8
2018-Jul-18 06:00 049 4 gusting 16 17.8
2018-Jul-18 05:46 065 0 gusting 5 17.8
2018-Jul-18 05:30 103 6 gusting 13 17.8
2018-Jul-18 05:15 088 7 gusting 14 17.8
2018-Jul-18 04:59 091 5 gusting 16 17.8
2018-Jul-18 04:45 073 6 gusting 13 17.8
2018-Jul-18 04:29 059 6 gusting 16 17.8
2018-Jul-18 04:15 069 7 gusting 13 17.8
2018-Jul-18 03:59 089 8 gusting 18 17.8
2018-Jul-18 03:44 084 9 gusting 19 17.8
2018-Jul-18 03:28 090 13 gusting 22 17.8
2018-Jul-18 03:13 069 10 gusting 21 17.8
2018-Jul-18 02:58 069 12 gusting 19 18.3
2018-Jul-18 02:43 111 10 gusting 22 18.3
2018-Jul-18 02:28 078 11 gusting 26 18.3
2018-Jul-18 02:14 081 8 gusting 15 18.3
2018-Jul-18 01:57 044 1 gusting 18 18.3
2018-Jul-18 01:42 121 11 gusting 24 18.3
2018-Jul-18 01:28 098 10 gusting 22 18.3
2018-Jul-18 01:12 111 9 gusting 21 18.3
2018-Jul-18 00:58 035 9 gusting 19 18.3
2018-Jul-18 00:42 056 7 gusting 14 18.3
2018-Jul-18 00:26 098 8 gusting 17 18.3
2018-Jul-18 00:11 069 7 gusting 19 18.3
2018-Jul-17 23:56 089 12 gusting 21 18.3
2018-Jul-17 23:41 044 11 gusting 20 18.3
2018-Jul-17 23:26 101 11 gusting 23 18.3
2018-Jul-17 23:12 089 15 gusting 25 18.9
2018-Jul-17 22:55 061 13 gusting 22 18.9
2018-Jul-17 22:41 107 13 gusting 23 18.9
2018-Jul-17 22:26 088 11 gusting 23 18.9
2018-Jul-17 22:10 061 8 gusting 16 18.9
2018-Jul-17 21:55 360 3 gusting 10 18.9
2018-Jul-17 21:40 050 5 gusting 14 16.7
2018-Jul-17 21:25 139 17.2
2018-Jul-17 21:09 139 17.2
2018-Jul-17 20:54 139 17.8
2018-Jul-17 20:40 141 18.3
2018-Jul-17 20:24 152 17.8
2018-Jul-17 20:10 225 18.3
2018-Jul-17 19:53 225 18.9
2018-Jul-17 19:38 225 20.0
2018-Jul-17 19:23 224 20.0
2018-Jul-17 19:09 223 20.0
2018-Jul-17 18:54 223 19.4
2018-Jul-17 18:38 223 2 gusting 8 19.4
2018-Jul-17 18:22 222 0 gusting 6 20.0
2018-Jul-17 18:07 224 1 gusting 8 20.0
2018-Jul-17 17:53 220 4 gusting 8 20.0
2018-Jul-17 17:37 219 0 gusting 9 20.0
2018-Jul-17 17:22 230 18.9
2018-Jul-17 17:07 237 3 gusting 8 20.0
2018-Jul-17 16:51 242 6 gusting 10 19.4
2018-Jul-17 16:36 248 4 gusting 10 20.0
2018-Jul-17 16:24 277 2 gusting 9 21.1
2018-Jul-17 16:06 227 1 gusting 8 21.1
2018-Jul-17 15:51 245 5 gusting 10 21.7
2018-Jul-17 15:36 236 6 gusting 10 21.1
2018-Jul-17 15:20 235 4 gusting 10 21.1
2018-Jul-17 15:05 224 6 gusting 11 21.7
2018-Jul-17 14:50 130 3 gusting 7 21.1
2018-Jul-17 14:35 206 5 gusting 8 21.7
2018-Jul-17 14:05 202 10 gusting 14 21.1
2018-Jul-17 13:50 150 4 gusting 13 22.8
2018-Jul-17 13:35 117 6 gusting 15 22.2
2018-Jul-17 13:19 233 2 gusting 9 20.6
2018-Jul-17 13:04 225 21.1
2018-Jul-17 12:49 084 8 gusting 18 22.8
2018-Jul-17 12:36 046 6 gusting 19 22.8
2018-Jul-17 12:18 056 5 gusting 21 22.2
2018-Jul-17 12:03 091 10 gusting 19 22.2
2018-Jul-17 11:48 130 12 gusting 21 22.2
2018-Jul-17 11:34 074 5 gusting 20 21.7
2018-Jul-17 11:19 150 11 gusting 19 21.1
2018-Jul-17 11:02 196 7 gusting 25 20.6
2018-Jul-17 10:48 115 8 gusting 21 20.6
2018-Jul-17 10:32 075 8 gusting 19 21.1
2018-Jul-17 10:17 053 6 gusting 25 20.6
2018-Jul-17 10:02 066 9 gusting 19 20.6
2018-Jul-17 09:46 061 4 gusting 13 20.0
2018-Jul-17 09:31 349 20.6
2018-Jul-17 09:16 017 7 gusting 13 20.0
2018-Jul-17 09:02 169 0 gusting 15 19.4
2018-Jul-17 08:46 165 18.9
2018-Jul-17 08:30 092 6 gusting 16 18.9
2018-Jul-17 08:15 058 3 gusting 18 18.3
2018-Jul-17 08:00 318 0 gusting 14 17.8
2018-Jul-17 07:45 040 0 gusting 19 17.8
2018-Jul-17 07:30 050 9 gusting 21 17.8
2018-Jul-17 07:15 028 7 gusting 19 17.2
2018-Jul-17 06:59 028 4 gusting 16 16.7
2018-Jul-17 06:45 077 15.6
2018-Jul-17 06:30 077 16.1
2018-Jul-17 06:14 077 16.1
2018-Jul-17 05:59 077 0 gusting 5 15.6
2018-Jul-17 05:43 077 3 gusting 6 15.6
2018-Jul-17 05:29 071 0 gusting 4 16.1
2018-Jul-17 05:13 071 0 gusting 8 16.1
2018-Jul-17 04:58 086 16.1
2018-Jul-17 04:43 086 16.7
2018-Jul-17 04:28 100 1 gusting 6 16.1
2018-Jul-17 04:12 100 2 gusting 6 16.7
2018-Jul-17 03:58 098 4 gusting 12 17.2
2018-Jul-17 03:42 080 8 gusting 16 17.2
2018-Jul-17 03:27 105 4 gusting 10 17.2
2018-Jul-17 03:13 116 0 gusting 9 16.7
2018-Jul-17 02:57 123 3 gusting 10 16.7
2018-Jul-17 02:41 124 4 gusting 10 16.7
2018-Jul-17 02:26 178 0 gusting 6 16.1
2018-Jul-17 02:11 204 15.6
2018-Jul-17 01:57 204 15.6
2018-Jul-17 01:41 205 15.6
2018-Jul-17 01:25 204 15.6
2018-Jul-17 01:10 207 0 gusting 4 15.6
2018-Jul-17 00:55 200 16.1
2018-Jul-17 00:40 200 16.1
2018-Jul-17 00:25 200 16.7
2018-Jul-17 00:10 200 0 gusting 4 16.7
2018-Jul-16 23:54 200 16.7
2018-Jul-16 23:39 200 16.7
2018-Jul-16 23:25 200 16.1
2018-Jul-16 23:09 200 16.7
2018-Jul-16 22:54 200 16.7
2018-Jul-16 22:39 200 16.7
2018-Jul-16 22:23 200 17.2
2018-Jul-16 22:08 200 17.2
2018-Jul-16 21:53 200 17.2
2018-Jul-16 21:38 200 17.8
2018-Jul-16 21:24 201 2 gusting 6 17.8
2018-Jul-16 21:08 214 17.8
2018-Jul-16 20:53 214 17.8
2018-Jul-16 20:38 214 17.8
2018-Jul-16 20:22 214 18.3
2018-Jul-16 20:07 214 18.3
2018-Jul-16 19:52 214 18.3
2018-Jul-16 19:37 214 18.9
2018-Jul-16 19:22 213 2 gusting 6 19.4
2018-Jul-16 19:06 212 0 gusting 6 20.0
2018-Jul-16 18:51 212 20.0
2018-Jul-16 18:36 217 2 gusting 6 20.0
2018-Jul-16 18:21 217 0 gusting 6 20.0
2018-Jul-16 18:06 194 1 gusting 13 21.7
2018-Jul-16 17:51 133 5 gusting 12 22.2
2018-Jul-16 17:36 051 2 gusting 11 21.7
2018-Jul-16 17:20 252 2 gusting 8 21.1
2018-Jul-16 17:05 284 1 gusting 14 22.8
2018-Jul-16 16:50 078 7 gusting 16 22.2
2018-Jul-16 16:35 122 11 gusting 19 22.2
2018-Jul-16 16:21 196 4 gusting 8 21.7
2018-Jul-16 16:04 093 8 gusting 18 21.7
2018-Jul-16 15:50 176 4 gusting 15 21.1
2018-Jul-16 15:35 188 0 gusting 18 21.1
2018-Jul-16 15:20 215 2 gusting 7 20.6
2018-Jul-16 15:04 225 1 gusting 7 21.1
2018-Jul-16 14:48 223 1 gusting 18 22.2
2018-Jul-16 14:33 069 6 gusting 18 22.8
2018-Jul-16 14:19 064 13 gusting 22 22.2
2018-Jul-16 14:03 059 6 gusting 21 22.2
2018-Jul-16 13:49 135 7 gusting 19 22.2
2018-Jul-16 13:33 157 1 gusting 20 22.2
2018-Jul-16 13:17 109 3 gusting 18 21.7
2018-Jul-16 13:03 174 6 gusting 16 21.7
2018-Jul-16 12:47 227 3 gusting 17 21.1
2018-Jul-16 12:33 233 0 gusting 6 20.6
2018-Jul-16 12:17 245 0 gusting 8 20.6
2018-Jul-16 12:02 250 0 gusting 6 20.6
2018-Jul-16 11:46 069 1 gusting 9 23.3
2018-Jul-16 11:31 142 3 gusting 14 22.8
2018-Jul-16 11:16 109 2 gusting 13 22.2
2018-Jul-16 11:01 090 2 gusting 11 21.7
2018-Jul-16 10:45 140 3 gusting 17 21.1
2018-Jul-16 10:31 146 3 gusting 8 20.0
2018-Jul-16 10:15 212 2 gusting 6 18.9
2018-Jul-16 10:00 218 0 gusting 6 18.9
2018-Jul-16 09:45 208 1 gusting 5 18.3
2018-Jul-16 09:32 180 19.4
2018-Jul-16 09:14 078 2 gusting 17 20.0
2018-Jul-16 09:00 118 9 gusting 16 20.0
2018-Jul-16 08:45 113 4 gusting 13 19.4
2018-Jul-16 08:30 088 4 gusting 18 19.4
2018-Jul-16 08:13 086 8 gusting 19 18.9